sensor_id;sensor_type;location;lat;lon;timestamp;P1;durP1;ratioP1;P2;durP2;ratioP2
20505;SDS011;10411;48.148;7.704;2023-02-28T00:01:27;23.20;;;21.80;;
20505;SDS011;10411;48.148;7.704;2023-02-28T00:03:53;23.93;;;22.43;;
20505;SDS011;10411;48.148;7.704;2023-02-28T00:06:20;23.93;;;22.43;;
20505;SDS011;10411;48.148;7.704;2023-02-28T00:08:48;23.50;;;22.00;;
20505;SDS011;10411;48.148;7.704;2023-02-28T00:11:17;23.50;;;22.10;;
20505;SDS011;10411;48.148;7.704;2023-02-28T00:13:52;23.80;;;22.30;;
20505;SDS011;10411;48.148;7.704;2023-02-28T00:16:19;24.03;;;22.37;;
20505;SDS011;10411;48.148;7.704;2023-02-28T00:18:53;23.60;;;22.10;;
20505;SDS011;10411;48.148;7.704;2023-02-28T00:21:28;24.00;;;22.40;;
20505;SDS011;10411;48.148;7.704;2023-02-28T00:23:57;23.63;;;22.13;;
20505;SDS011;10411;48.148;7.704;2023-02-28T00:26:25;23.37;;;21.97;;
20505;SDS011;10411;48.148;7.704;2023-02-28T00:28:53;22.50;;;21.20;;
20505;SDS011;10411;48.148;7.704;2023-02-28T00:31:19;24.00;;;22.50;;
20505;SDS011;10411;48.148;7.704;2023-02-28T00:33:48;23.97;;;22.27;;
20505;SDS011;10411;48.148;7.704;2023-02-28T00:36:18;23.60;;;22.10;;
20505;SDS011;10411;48.148;7.704;2023-02-28T00:38:44;23.23;;;21.73;;
20505;SDS011;10411;48.148;7.704;2023-02-28T00:41:18;23.60;;;22.10;;
20505;SDS011;10411;48.148;7.704;2023-02-28T00:43:48;23.60;;;22.10;;
20505;SDS011;10411;48.148;7.704;2023-02-28T00:46:25;23.13;;;21.73;;
20505;SDS011;10411;48.148;7.704;2023-02-28T00:49:06;23.87;;;22.37;;
20505;SDS011;10411;48.148;7.704;2023-02-28T00:51:32;23.23;;;21.87;;
20505;SDS011;10411;48.148;7.704;2023-02-28T00:53:58;23.50;;;22.07;;
20505;SDS011;10411;48.148;7.704;2023-02-28T00:56:27;23.50;;;22.10;;
20505;SDS011;10411;48.148;7.704;2023-02-28T00:58:55;23.67;;;22.27;;
20505;SDS011;10411;48.148;7.704;2023-02-28T01:01:29;23.40;;;22.00;;
20505;SDS011;10411;48.148;7.704;2023-02-28T01:06:55;23.27;;;21.63;;
20505;SDS011;10411;48.148;7.704;2023-02-28T01:09:21;23.33;;;21.83;;
20505;SDS011;10411;48.148;7.704;2023-02-28T01:11:49;23.57;;;22.07;;
20505;SDS011;10411;48.148;7.704;2023-02-28T01:14:16;24.40;;;22.90;;
20505;SDS011;10411;48.148;7.704;2023-02-28T01:16:42;23.23;;;21.73;;
20505;SDS011;10411;48.148;7.704;2023-02-28T01:19:16;23.10;;;21.70;;
20505;SDS011;10411;48.148;7.704;2023-02-28T01:21:42;24.50;;;22.90;;
20505;SDS011;10411;48.148;7.704;2023-02-28T01:24:08;23.13;;;21.73;;
20505;SDS011;10411;48.148;7.704;2023-02-28T01:26:34;23.87;;;22.40;;
20505;SDS011;10411;48.148;7.704;2023-02-28T01:29:00;23.80;;;22.20;;
20505;SDS011;10411;48.148;7.704;2023-02-28T01:31:26;23.67;;;22.20;;
20505;SDS011;10411;48.148;7.704;2023-02-28T01:33:52;23.37;;;21.97;;
20505;SDS011;10411;48.148;7.704;2023-02-28T01:36:22;23.57;;;22.07;;
20505;SDS011;10411;48.148;7.704;2023-02-28T01:38:55;23.40;;;22.00;;
20505;SDS011;10411;48.148;7.704;2023-02-28T01:41:23;23.00;;;21.60;;
20505;SDS011;10411;48.148;7.704;2023-02-28T01:46:15;23.93;;;22.40;;
20505;SDS011;10411;48.148;7.704;2023-02-28T01:48:45;24.33;;;22.73;;
20505;SDS011;10411;48.148;7.704;2023-02-28T01:51:16;23.40;;;22.07;;
20505;SDS011;10411;48.148;7.704;2023-02-28T01:53:49;23.90;;;22.30;;
20505;SDS011;10411;48.148;7.704;2023-02-28T01:56:20;23.80;;;22.30;;
20505;SDS011;10411;48.148;7.704;2023-02-28T01:58:49;23.70;;;22.20;;
20505;SDS011;10411;48.148;7.704;2023-02-28T02:01:20;23.87;;;22.30;;
20505;SDS011;10411;48.148;7.704;2023-02-28T02:06:46;23.73;;;22.23;;
20505;SDS011;10411;48.148;7.704;2023-02-28T02:09:18;23.83;;;22.33;;
20505;SDS011;10411;48.148;7.704;2023-02-28T02:11:47;23.73;;;22.23;;
20505;SDS011;10411;48.148;7.704;2023-02-28T02:14:35;24.10;;;22.60;;
20505;SDS011;10411;48.148;7.704;2023-02-28T02:20:05;24.10;;;22.60;;
20505;SDS011;10411;48.148;7.704;2023-02-28T02:22:51;23.57;;;22.17;;
20505;SDS011;10411;48.148;7.704;2023-02-28T02:36:53;23.63;;;22.10;;
20505;SDS011;10411;48.148;7.704;2023-02-28T02:39:31;23.67;;;22.10;;
20505;SDS011;10411;48.148;7.704;2023-02-28T02:42:04;23.80;;;22.40;;
20505;SDS011;10411;48.148;7.704;2023-02-28T02:47:21;23.83;;;22.33;;
20505;SDS011;10411;48.148;7.704;2023-02-28T02:49:50;24.70;;;22.97;;
20505;SDS011;10411;48.148;7.704;2023-02-28T02:52:20;24.30;;;22.70;;
20505;SDS011;10411;48.148;7.704;2023-02-28T02:54:54;24.00;;;22.40;;
20505;SDS011;10411;48.148;7.704;2023-02-28T03:00:09;23.97;;;22.50;;
20505;SDS011;10411;48.148;7.704;2023-02-28T03:02:57;23.80;;;22.30;;
20505;SDS011;10411;48.148;7.704;2023-02-28T03:05:38;24.40;;;22.80;;
20505;SDS011;10411;48.148;7.704;2023-02-28T03:08:12;23.80;;;22.40;;
20505;SDS011;10411;48.148;7.704;2023-02-28T03:10:40;24.40;;;22.90;;
20505;SDS011;10411;48.148;7.704;2023-02-28T03:21:27;23.60;;;22.10;;
20505;SDS011;10411;48.148;7.704;2023-02-28T03:23:56;23.83;;;22.33;;
20505;SDS011;10411;48.148;7.704;2023-02-28T03:26:27;24.17;;;22.57;;
20505;SDS011;10411;48.148;7.704;2023-02-28T03:28:56;24.10;;;22.50;;
20505;SDS011;10411;48.148;7.704;2023-02-28T03:34:04;24.37;;;22.77;;
20505;SDS011;10411;48.148;7.704;2023-02-28T03:36:39;24.73;;;23.13;;
20505;SDS011;10411;48.148;7.704;2023-02-28T03:39:19;24.27;;;22.77;;
20505;SDS011;10411;48.148;7.704;2023-02-28T03:42:03;24.00;;;22.50;;
20505;SDS011;10411;48.148;7.704;2023-02-28T03:44:40;25.30;;;23.70;;
20505;SDS011;10411;48.148;7.704;2023-02-28T03:47:16;24.60;;;23.00;;
20505;SDS011;10411;48.148;7.704;2023-02-28T03:49:50;25.13;;;23.53;;
20505;SDS011;10411;48.148;7.704;2023-02-28T03:52:18;25.00;;;23.27;;
20505;SDS011;10411;48.148;7.704;2023-02-28T03:54:47;24.80;;;23.30;;
20505;SDS011;10411;48.148;7.704;2023-02-28T03:57:34;24.93;;;23.33;;
20505;SDS011;10411;48.148;7.704;2023-02-28T04:00:13;24.67;;;23.13;;
20505;SDS011;10411;48.148;7.704;2023-02-28T04:02:45;24.57;;;23.03;;
20505;SDS011;10411;48.148;7.704;2023-02-28T04:05:14;24.70;;;23.10;;
20505;SDS011;10411;48.148;7.704;2023-02-28T04:07:43;24.33;;;22.83;;
20505;SDS011;10411;48.148;7.704;2023-02-28T04:10:18;24.30;;;22.70;;
20505;SDS011;10411;48.148;7.704;2023-02-28T04:12:51;24.37;;;22.87;;
20505;SDS011;10411;48.148;7.704;2023-02-28T04:15:19;24.80;;;23.30;;
20505;SDS011;10411;48.148;7.704;2023-02-28T04:17:50;23.97;;;22.47;;
20505;SDS011;10411;48.148;7.704;2023-02-28T04:20:24;24.20;;;22.60;;
20505;SDS011;10411;48.148;7.704;2023-02-28T04:22:50;24.27;;;22.63;;
20505;SDS011;10411;48.148;7.704;2023-02-28T04:25:34;24.77;;;23.17;;
20505;SDS011;10411;48.148;7.704;2023-02-28T04:28:06;25.23;;;23.50;;
20505;SDS011;10411;48.148;7.704;2023-02-28T04:30:41;23.80;;;22.30;;
20505;SDS011;10411;48.148;7.704;2023-02-28T04:33:12;24.87;;;23.27;;
20505;SDS011;10411;48.148;7.704;2023-02-28T04:35:38;25.13;;;23.43;;
20505;SDS011;10411;48.148;7.704;2023-02-28T04:38:04;25.10;;;23.50;;
20505;SDS011;10411;48.148;7.704;2023-02-28T04:40:53;24.23;;;22.80;;
20505;SDS011;10411;48.148;7.704;2023-02-28T04:43:22;25.07;;;23.27;;
20505;SDS011;10411;48.148;7.704;2023-02-28T04:45:56;25.00;;;23.40;;
20505;SDS011;10411;48.148;7.704;2023-02-28T04:48:51;24.50;;;23.00;;
20505;SDS011;10411;48.148;7.704;2023-02-28T04:51:25;24.60;;;22.90;;
20505;SDS011;10411;48.148;7.704;2023-02-28T04:54:07;23.90;;;22.50;;
20505;SDS011;10411;48.148;7.704;2023-02-28T04:56:41;24.30;;;22.80;;
20505;SDS011;10411;48.148;7.704;2023-02-28T04:59:20;24.70;;;23.10;;
20505;SDS011;10411;48.148;7.704;2023-02-28T05:01:47;24.57;;;22.97;;
20505;SDS011;10411;48.148;7.704;2023-02-28T05:04:14;25.43;;;23.73;;
20505;SDS011;10411;48.148;7.704;2023-02-28T05:06:42;25.07;;;23.37;;
20505;SDS011;10411;48.148;7.704;2023-02-28T05:09:15;25.47;;;23.67;;
20505;SDS011;10411;48.148;7.704;2023-02-28T05:11:50;25.03;;;23.50;;
20505;SDS011;10411;48.148;7.704;2023-02-28T05:14:30;25.10;;;23.50;;
20505;SDS011;10411;48.148;7.704;2023-02-28T05:16:56;25.40;;;23.53;;
20505;SDS011;10411;48.148;7.704;2023-02-28T05:19:25;25.53;;;23.93;;
20505;SDS011;10411;48.148;7.704;2023-02-28T05:21:57;25.23;;;23.63;;
20505;SDS011;10411;48.148;7.704;2023-02-28T05:24:23;25.33;;;23.73;;
20505;SDS011;10411;48.148;7.704;2023-02-28T05:48:09;25.10;;;23.50;;
20505;SDS011;10411;48.148;7.704;2023-02-28T05:50:35;26.53;;;24.50;;
20505;SDS011;10411;48.148;7.704;2023-02-28T05:53:01;26.20;;;24.50;;
20505;SDS011;10411;48.148;7.704;2023-02-28T05:55:27;25.23;;;23.60;;
20505;SDS011;10411;48.148;7.704;2023-02-28T05:58:06;25.27;;;23.60;;
20505;SDS011;10411;48.148;7.704;2023-02-28T06:00:37;25.00;;;23.03;;
20505;SDS011;10411;48.148;7.704;2023-02-28T06:03:09;25.53;;;23.73;;
20505;SDS011;10411;48.148;7.704;2023-02-28T06:05:38;24.53;;;23.03;;
20505;SDS011;10411;48.148;7.704;2023-02-28T06:08:08;26.13;;;24.50;;
20505;SDS011;10411;48.148;7.704;2023-02-28T06:10:38;24.40;;;22.90;;
20505;SDS011;10411;48.148;7.704;2023-02-28T06:13:04;25.53;;;23.83;;
20505;SDS011;10411;48.148;7.704;2023-02-28T06:15:45;24.87;;;23.30;;
20505;SDS011;10411;48.148;7.704;2023-02-28T06:18:22;25.60;;;24.03;;
20505;SDS011;10411;48.148;7.704;2023-02-28T06:20:54;25.50;;;23.90;;
20505;SDS011;10411;48.148;7.704;2023-02-28T06:23:23;25.70;;;24.00;;
20505;SDS011;10411;48.148;7.704;2023-02-28T06:26:26;26.13;;;24.43;;
20505;SDS011;10411;48.148;7.704;2023-02-28T06:28:57;24.67;;;23.07;;
20505;SDS011;10411;48.148;7.704;2023-02-28T06:31:28;25.33;;;23.50;;
20505;SDS011;10411;48.148;7.704;2023-02-28T06:34:03;25.40;;;23.63;;
20505;SDS011;10411;48.148;7.704;2023-02-28T06:36:43;24.60;;;23.00;;
20505;SDS011;10411;48.148;7.704;2023-02-28T06:39:20;25.57;;;23.87;;
20505;SDS011;10411;48.148;7.704;2023-02-28T06:41:49;25.23;;;23.53;;
20505;SDS011;10411;48.148;7.704;2023-02-28T06:44:27;25.73;;;23.93;;
20505;SDS011;10411;48.148;7.704;2023-02-28T06:47:13;24.93;;;23.23;;
20505;SDS011;10411;48.148;7.704;2023-02-28T06:49:48;24.43;;;22.93;;
20505;SDS011;10411;48.148;7.704;2023-02-28T06:52:19;25.97;;;23.90;;
20505;SDS011;10411;48.148;7.704;2023-02-28T06:55:02;25.50;;;23.80;;
20505;SDS011;10411;48.148;7.704;2023-02-28T06:57:29;24.63;;;23.03;;
20505;SDS011;10411;48.148;7.704;2023-02-28T06:59:59;24.90;;;23.30;;
20505;SDS011;10411;48.148;7.704;2023-02-28T07:02:28;25.10;;;23.50;;
20505;SDS011;10411;48.148;7.704;2023-02-28T07:05:03;25.83;;;24.03;;
20505;SDS011;10411;48.148;7.704;2023-02-28T07:07:35;26.20;;;24.23;;
20505;SDS011;10411;48.148;7.704;2023-02-28T07:10:25;25.50;;;23.70;;
20505;SDS011;10411;48.148;7.704;2023-02-28T07:12:51;25.23;;;23.57;;
20505;SDS011;10411;48.148;7.704;2023-02-28T07:15:29;25.50;;;23.80;;
20505;SDS011;10411;48.148;7.704;2023-02-28T07:18:09;26.53;;;24.57;;
20505;SDS011;10411;48.148;7.704;2023-02-28T07:20:38;25.00;;;23.40;;
20505;SDS011;10411;48.148;7.704;2023-02-28T07:23:10;26.50;;;24.50;;
20505;SDS011;10411;48.148;7.704;2023-02-28T07:25:39;26.10;;;24.20;;
20505;SDS011;10411;48.148;7.704;2023-02-28T07:31:27;25.33;;;23.67;;
20505;SDS011;10411;48.148;7.704;2023-02-28T07:36:45;26.03;;;24.30;;
20505;SDS011;10411;48.148;7.704;2023-02-28T07:39:23;25.73;;;24.03;;
20505;SDS011;10411;48.148;7.704;2023-02-28T07:42:08;26.23;;;24.40;;
20505;SDS011;10411;48.148;7.704;2023-02-28T07:44:42;25.90;;;24.00;;
20505;SDS011;10411;48.148;7.704;2023-02-28T07:47:09;26.20;;;24.20;;
20505;SDS011;10411;48.148;7.704;2023-02-28T07:50:03;26.23;;;24.53;;
20505;SDS011;10411;48.148;7.704;2023-02-28T07:52:29;26.53;;;24.53;;
20505;SDS011;10411;48.148;7.704;2023-02-28T07:55:01;26.77;;;24.83;;
20505;SDS011;10411;48.148;7.704;2023-02-28T07:57:32;26.73;;;24.83;;
20505;SDS011;10411;48.148;7.704;2023-02-28T08:00:16;25.70;;;23.87;;
20505;SDS011;10411;48.148;7.704;2023-02-28T08:02:44;26.20;;;24.40;;
20505;SDS011;10411;48.148;7.704;2023-02-28T08:05:16;25.73;;;23.90;;
20505;SDS011;10411;48.148;7.704;2023-02-28T08:07:42;26.10;;;24.23;;
20505;SDS011;10411;48.148;7.704;2023-02-28T08:10:11;25.77;;;23.97;;
20505;SDS011;10411;48.148;7.704;2023-02-28T08:12:37;26.90;;;25.00;;
20505;SDS011;10411;48.148;7.704;2023-02-28T08:15:26;26.53;;;24.73;;
20505;SDS011;10411;48.148;7.704;2023-02-28T08:20:48;26.60;;;24.80;;
20505;SDS011;10411;48.148;7.704;2023-02-28T08:23:20;25.63;;;23.87;;
20505;SDS011;10411;48.148;7.704;2023-02-28T08:25:55;26.30;;;24.50;;
20505;SDS011;10411;48.148;7.704;2023-02-28T08:28:23;26.53;;;24.63;;
20505;SDS011;10411;48.148;7.704;2023-02-28T08:31:01;26.70;;;24.73;;
20505;SDS011;10411;48.148;7.704;2023-02-28T08:33:52;26.50;;;24.60;;
20505;SDS011;10411;48.148;7.704;2023-02-28T08:36:27;26.03;;;24.27;;
20505;SDS011;10411;48.148;7.704;2023-02-28T08:38:53;26.50;;;24.50;;
20505;SDS011;10411;48.148;7.704;2023-02-28T08:44:14;26.77;;;24.77;;
20505;SDS011;10411;48.148;7.704;2023-02-28T08:46:43;26.57;;;24.77;;
20505;SDS011;10411;48.148;7.704;2023-02-28T08:49:15;26.43;;;24.60;;
20505;SDS011;10411;48.148;7.704;2023-02-28T08:52:01;26.20;;;24.40;;
20505;SDS011;10411;48.148;7.704;2023-02-28T08:54:30;26.97;;;24.77;;
20505;SDS011;10411;48.148;7.704;2023-02-28T08:57:02;25.87;;;24.07;;
20505;SDS011;10411;48.148;7.704;2023-02-28T08:59:45;26.50;;;24.50;;
20505;SDS011;10411;48.148;7.704;2023-02-28T09:02:14;26.37;;;24.47;;
20505;SDS011;10411;48.148;7.704;2023-02-28T09:07:39;26.00;;;24.17;;
20505;SDS011;10411;48.148;7.704;2023-02-28T09:10:17;26.23;;;24.43;;
20505;SDS011;10411;48.148;7.704;2023-02-28T09:12:48;26.57;;;24.53;;
20505;SDS011;10411;48.148;7.704;2023-02-28T09:15:22;27.20;;;25.10;;
20505;SDS011;10411;48.148;7.704;2023-02-28T09:17:48;27.20;;;25.30;;
20505;SDS011;10411;48.148;7.704;2023-02-28T09:20:19;27.00;;;25.10;;
20505;SDS011;10411;48.148;7.704;2023-02-28T09:22:47;26.23;;;24.33;;
20505;SDS011;10411;48.148;7.704;2023-02-28T09:25:16;26.00;;;24.20;;
20505;SDS011;10411;48.148;7.704;2023-02-28T09:27:42;26.50;;;24.60;;
20505;SDS011;10411;48.148;7.704;2023-02-28T09:30:10;27.27;;;25.30;;
20505;SDS011;10411;48.148;7.704;2023-02-28T09:32:54;26.47;;;24.67;;
20505;SDS011;10411;48.148;7.704;2023-02-28T09:35:21;26.60;;;24.70;;
20505;SDS011;10411;48.148;7.704;2023-02-28T09:37:48;26.30;;;24.50;;
20505;SDS011;10411;48.148;7.704;2023-02-28T09:40:49;27.07;;;25.17;;
20505;SDS011;10411;48.148;7.704;2023-02-28T09:46:47;27.37;;;25.43;;
20505;SDS011;10411;48.148;7.704;2023-02-28T09:49:19;25.97;;;24.23;;
20505;SDS011;10411;48.148;7.704;2023-02-28T09:54:18;27.10;;;25.20;;
20505;SDS011;10411;48.148;7.704;2023-02-28T09:56:56;26.53;;;24.73;;
20505;SDS011;10411;48.148;7.704;2023-02-28T10:03:06;27.00;;;25.10;;
20505;SDS011;10411;48.148;7.704;2023-02-28T10:08:36;28.27;;;26.17;;
20505;SDS011;10411;48.148;7.704;2023-02-28T10:11:11;26.67;;;24.80;;
20505;SDS011;10411;48.148;7.704;2023-02-28T10:13:54;27.33;;;25.37;;
20505;SDS011;10411;48.148;7.704;2023-02-28T10:22:27;28.00;;;25.83;;
20505;SDS011;10411;48.148;7.704;2023-02-28T10:25:00;27.50;;;25.50;;
20505;SDS011;10411;48.148;7.704;2023-02-28T10:27:38;28.47;;;26.47;;
20505;SDS011;10411;48.148;7.704;2023-02-28T10:30:20;27.60;;;25.70;;
20505;SDS011;10411;48.148;7.704;2023-02-28T10:32:50;26.87;;;24.97;;
20505;SDS011;10411;48.148;7.704;2023-02-28T10:35:26;27.73;;;25.63;;
20505;SDS011;10411;48.148;7.704;2023-02-28T10:40:33;27.80;;;25.80;;
20505;SDS011;10411;48.148;7.704;2023-02-28T10:43:11;28.20;;;26.10;;
20505;SDS011;10411;48.148;7.704;2023-02-28T10:46:00;27.53;;;25.53;;
20505;SDS011;10411;48.148;7.704;2023-02-28T10:49:08;28.00;;;26.07;;
20505;SDS011;10411;48.148;7.704;2023-02-28T10:51:43;27.80;;;25.80;;
20505;SDS011;10411;48.148;7.704;2023-02-28T10:54:33;28.23;;;26.23;;
20505;SDS011;10411;48.148;7.704;2023-02-28T11:02:55;28.10;;;25.93;;
20505;SDS011;10411;48.148;7.704;2023-02-28T11:05:33;28.10;;;26.00;;
20505;SDS011;10411;48.148;7.704;2023-02-28T11:08:16;27.73;;;25.73;;
20505;SDS011;10411;48.148;7.704;2023-02-28T11:10:46;27.67;;;25.57;;
20505;SDS011;10411;48.148;7.704;2023-02-28T11:13:25;28.43;;;26.33;;
20505;SDS011;10411;48.148;7.704;2023-02-28T11:16:12;28.23;;;26.13;;
20505;SDS011;10411;48.148;7.704;2023-02-28T11:29:47;28.03;;;26.03;;
20505;SDS011;10411;48.148;7.704;2023-02-28T11:43:41;29.40;;;26.70;;
20505;SDS011;10411;48.148;7.704;2023-02-28T11:51:34;28.90;;;26.43;;
20505;SDS011;10411;48.148;7.704;2023-02-28T11:54:23;28.67;;;26.47;;
20505;SDS011;10411;48.148;7.704;2023-02-28T11:57:23;28.90;;;26.60;;
20505;SDS011;10411;48.148;7.704;2023-02-28T12:11:09;28.60;;;26.50;;
20505;SDS011;10411;48.148;7.704;2023-02-28T12:26:58;29.27;;;26.97;;
20505;SDS011;10411;48.148;7.704;2023-02-28T12:29:46;28.90;;;26.67;;
20505;SDS011;10411;48.148;7.704;2023-02-28T12:32:16;29.07;;;26.90;;
20505;SDS011;10411;48.148;7.704;2023-02-28T12:37:37;28.50;;;26.30;;
20505;SDS011;10411;48.148;7.704;2023-02-28T12:40:20;28.07;;;25.97;;
20505;SDS011;10411;48.148;7.704;2023-02-28T12:42:49;28.60;;;26.40;;
20505;SDS011;10411;48.148;7.704;2023-02-28T12:48:10;28.73;;;26.63;;
20505;SDS011;10411;48.148;7.704;2023-02-28T12:50:38;29.27;;;27.10;;
20505;SDS011;10411;48.148;7.704;2023-02-28T12:55:46;28.97;;;26.83;;
20505;SDS011;10411;48.148;7.704;2023-02-28T12:58:20;29.80;;;27.50;;
20505;SDS011;10411;48.148;7.704;2023-02-28T13:01:04;28.67;;;26.47;;
20505;SDS011;10411;48.148;7.704;2023-02-28T13:09:15;29.10;;;26.90;;
20505;SDS011;10411;48.148;7.704;2023-02-28T13:11:43;28.33;;;26.20;;
20505;SDS011;10411;48.148;7.704;2023-02-28T13:17:14;30.20;;;27.83;;
20505;SDS011;10411;48.148;7.704;2023-02-28T13:22:40;28.70;;;26.53;;
20505;SDS011;10411;48.148;7.704;2023-02-28T13:27:50;29.47;;;27.10;;
20505;SDS011;10411;48.148;7.704;2023-02-28T13:39:44;29.77;;;27.40;;
20505;SDS011;10411;48.148;7.704;2023-02-28T13:47:42;28.57;;;26.33;;
20505;SDS011;10411;48.148;7.704;2023-02-28T13:55:48;29.63;;;27.47;;
20505;SDS011;10411;48.148;7.704;2023-02-28T14:01:44;28.43;;;26.33;;
20505;SDS011;10411;48.148;7.704;2023-02-28T14:04:31;29.13;;;27.03;;
20505;SDS011;10411;48.148;7.704;2023-02-28T14:07:04;29.63;;;27.43;;
20505;SDS011;10411;48.148;7.704;2023-02-28T14:09:41;29.40;;;27.10;;
20505;SDS011;10411;48.148;7.704;2023-02-28T14:14:57;29.47;;;27.27;;
20505;SDS011;10411;48.148;7.704;2023-02-28T14:20:15;28.13;;;26.13;;
20505;SDS011;10411;48.148;7.704;2023-02-28T14:23:43;29.00;;;26.90;;
20505;SDS011;10411;48.148;7.704;2023-02-28T14:26:01;28.97;;;26.87;;
20505;SDS011;10411;48.148;7.704;2023-02-28T14:31:18;28.73;;;26.70;;
20505;SDS011;10411;48.148;7.704;2023-02-28T14:39:26;29.80;;;27.60;;
20505;SDS011;10411;48.148;7.704;2023-02-28T14:41:56;29.70;;;27.37;;
20505;SDS011;10411;48.148;7.704;2023-02-28T14:44:32;29.33;;;27.23;;
20505;SDS011;10411;48.148;7.704;2023-02-28T14:47:14;30.20;;;27.90;;
20505;SDS011;10411;48.148;7.704;2023-02-28T14:49:54;29.83;;;27.57;;
20505;SDS011;10411;48.148;7.704;2023-02-28T14:52:42;29.20;;;26.90;;
20505;SDS011;10411;48.148;7.704;2023-02-28T14:55:17;29.40;;;27.10;;
20505;SDS011;10411;48.148;7.704;2023-02-28T14:57:54;29.17;;;26.97;;
20505;SDS011;10411;48.148;7.704;2023-02-28T15:00:27;29.87;;;27.53;;
20505;SDS011;10411;48.148;7.704;2023-02-28T15:09:41;28.57;;;26.33;;
20505;SDS011;10411;48.148;7.704;2023-02-28T15:32:00;29.90;;;27.57;;
20505;SDS011;10411;48.148;7.704;2023-02-28T15:39:53;28.50;;;26.30;;
20505;SDS011;10411;48.148;7.704;2023-02-28T15:42:32;28.10;;;26.10;;
20505;SDS011;10411;48.148;7.704;2023-02-28T15:48:31;27.37;;;25.47;;
20505;SDS011;10411;48.148;7.704;2023-02-28T15:54:20;27.77;;;25.87;;
20505;SDS011;10411;48.148;7.704;2023-02-28T15:56:51;28.50;;;26.40;;
20505;SDS011;10411;48.148;7.704;2023-02-28T15:59:32;30.20;;;27.97;;
20505;SDS011;10411;48.148;7.704;2023-02-28T16:05:19;30.00;;;27.70;;
20505;SDS011;10411;48.148;7.704;2023-02-28T16:07:56;27.80;;;25.80;;
20505;SDS011;10411;48.148;7.704;2023-02-28T16:10:33;27.80;;;25.80;;
20505;SDS011;10411;48.148;7.704;2023-02-28T16:13:03;27.73;;;25.73;;
20505;SDS011;10411;48.148;7.704;2023-02-28T16:15:44;26.93;;;25.03;;
20505;SDS011;10411;48.148;7.704;2023-02-28T16:18:33;28.13;;;26.07;;
20505;SDS011;10411;48.148;7.704;2023-02-28T16:21:17;28.50;;;26.40;;
20505;SDS011;10411;48.148;7.704;2023-02-28T16:23:45;29.93;;;27.50;;
20505;SDS011;10411;48.148;7.704;2023-02-28T16:26:18;28.87;;;26.77;;
20505;SDS011;10411;48.148;7.704;2023-02-28T16:28:45;28.47;;;26.43;;
20505;SDS011;10411;48.148;7.704;2023-02-28T16:31:11;26.40;;;24.47;;
20505;SDS011;10411;48.148;7.704;2023-02-28T16:33:41;25.77;;;23.90;;
20505;SDS011;10411;48.148;7.704;2023-02-28T16:36:13;26.10;;;24.27;;
20505;SDS011;10411;48.148;7.704;2023-02-28T16:38:39;28.87;;;26.70;;
20505;SDS011;10411;48.148;7.704;2023-02-28T16:41:05;29.87;;;27.67;;
20505;SDS011;10411;48.148;7.704;2023-02-28T16:43:31;29.63;;;27.33;;
20505;SDS011;10411;48.148;7.704;2023-02-28T16:45:58;27.20;;;25.27;;
20505;SDS011;10411;48.148;7.704;2023-02-28T16:48:24;24.27;;;22.67;;
20505;SDS011;10411;48.148;7.704;2023-02-28T16:50:50;24.10;;;22.50;;
20505;SDS011;10411;48.148;7.704;2023-02-28T16:53:16;24.27;;;22.67;;
20505;SDS011;10411;48.148;7.704;2023-02-28T16:55:42;25.07;;;23.40;;
20505;SDS011;10411;48.148;7.704;2023-02-28T16:58:11;25.27;;;23.57;;
20505;SDS011;10411;48.148;7.704;2023-02-28T17:00:39;26.90;;;25.00;;
20505;SDS011;10411;48.148;7.704;2023-02-28T17:34:46;22.60;;;21.20;;
20505;SDS011;10411;48.148;7.704;2023-02-28T17:37:47;22.40;;;21.00;;
20505;SDS011;10411;48.148;7.704;2023-02-28T17:46:44;26.20;;;24.07;;
20505;SDS011;10411;48.148;7.704;2023-02-28T17:52:38;24.70;;;22.93;;
20505;SDS011;10411;48.148;7.704;2023-02-28T17:55:48;24.60;;;22.90;;
20505;SDS011;10411;48.148;7.704;2023-02-28T18:01:47;24.23;;;22.53;;
20505;SDS011;10411;48.148;7.704;2023-02-28T18:04:19;24.83;;;23.03;;
20505;SDS011;10411;48.148;7.704;2023-02-28T18:07:16;23.37;;;21.87;;
20505;SDS011;10411;48.148;7.704;2023-02-28T18:09:48;23.60;;;22.00;;
20505;SDS011;10411;48.148;7.704;2023-02-28T18:12:28;24.37;;;22.57;;
20505;SDS011;10411;48.148;7.704;2023-02-28T18:15:16;23.47;;;21.87;;
20505;SDS011;10411;48.148;7.704;2023-02-28T18:18:08;23.73;;;22.13;;
20505;SDS011;10411;48.148;7.704;2023-02-28T18:41:01;23.93;;;22.33;;
20505;SDS011;10411;48.148;7.704;2023-02-28T18:43:46;24.60;;;22.90;;
20505;SDS011;10411;48.148;7.704;2023-02-28T18:49:19;24.00;;;22.37;;
20505;SDS011;10411;48.148;7.704;2023-02-28T18:57:27;23.77;;;22.27;;
20505;SDS011;10411;48.148;7.704;2023-02-28T18:59:56;23.47;;;21.87;;
20505;SDS011;10411;48.148;7.704;2023-02-28T19:02:35;22.73;;;21.23;;
20505;SDS011;10411;48.148;7.704;2023-02-28T19:08:02;24.87;;;23.07;;
20505;SDS011;10411;48.148;7.704;2023-02-28T19:11:35;24.40;;;22.70;;
20505;SDS011;10411;48.148;7.704;2023-02-28T19:13:26;25.67;;;23.97;;
20505;SDS011;10411;48.148;7.704;2023-02-28T19:16:16;24.60;;;23.00;;
20505;SDS011;10411;48.148;7.704;2023-02-28T19:18:50;23.47;;;21.93;;
20505;SDS011;10411;48.148;7.704;2023-02-28T19:21:26;24.50;;;22.83;;
20505;SDS011;10411;48.148;7.704;2023-02-28T19:23:52;23.90;;;22.27;;
20505;SDS011;10411;48.148;7.704;2023-02-28T19:26:22;25.17;;;23.47;;
20505;SDS011;10411;48.148;7.704;2023-02-28T19:29:08;24.10;;;22.50;;
20505;SDS011;10411;48.148;7.704;2023-02-28T19:31:56;25.00;;;23.20;;
20505;SDS011;10411;48.148;7.704;2023-02-28T19:34:32;24.57;;;22.77;;
20505;SDS011;10411;48.148;7.704;2023-02-28T19:45:51;24.90;;;23.30;;
20505;SDS011;10411;48.148;7.704;2023-02-28T19:49:16;26.73;;;24.83;;
20505;SDS011;10411;48.148;7.704;2023-02-28T19:52:10;24.13;;;22.53;;
20505;SDS011;10411;48.148;7.704;2023-02-28T19:58:07;25.23;;;23.53;;
20505;SDS011;10411;48.148;7.704;2023-02-28T20:00:46;25.90;;;24.03;;
20505;SDS011;10411;48.148;7.704;2023-02-28T20:03:31;26.90;;;24.90;;
20505;SDS011;10411;48.148;7.704;2023-02-28T20:06:00;26.13;;;24.23;;
20505;SDS011;10411;48.148;7.704;2023-02-28T20:08:35;25.97;;;24.07;;
20505;SDS011;10411;48.148;7.704;2023-02-28T20:11:12;25.53;;;23.80;;
20505;SDS011;10411;48.148;7.704;2023-02-28T20:13:53;27.23;;;25.23;;
20505;SDS011;10411;48.148;7.704;2023-02-28T20:16:23;26.83;;;24.93;;
20505;SDS011;10411;48.148;7.704;2023-02-28T20:18:58;26.30;;;24.40;;
20505;SDS011;10411;48.148;7.704;2023-02-28T20:21:33;28.60;;;26.50;;
20505;SDS011;10411;48.148;7.704;2023-02-28T20:24:28;28.47;;;26.37;;
20505;SDS011;10411;48.148;7.704;2023-02-28T20:27:09;30.60;;;28.10;;
20505;SDS011;10411;48.148;7.704;2023-02-28T20:36:04;29.07;;;26.73;;
20505;SDS011;10411;48.148;7.704;2023-02-28T20:38:33;29.10;;;26.90;;
20505;SDS011;10411;48.148;7.704;2023-02-28T20:41:18;30.30;;;28.00;;
20505;SDS011;10411;48.148;7.704;2023-02-28T20:43:53;28.13;;;26.03;;
20505;SDS011;10411;48.148;7.704;2023-02-28T20:49:15;28.53;;;26.43;;
20505;SDS011;10411;48.148;7.704;2023-02-28T20:52:21;29.03;;;26.83;;
20505;SDS011;10411;48.148;7.704;2023-02-28T20:54:56;28.20;;;26.10;;
20505;SDS011;10411;48.148;7.704;2023-02-28T21:00:45;27.30;;;25.30;;